Tiempo atmosférico en la estación meteorológica de A Lama, Pontevedra (395 m.)



Fecha
DESCASC
Temp. máxima en grados centígrados (hora)
DESCASC
Temp. mínima en grados centígrados (hora)
DESCASC
Temp. media en grados centígrados
DESCASC
Racha de viento máxima en m/sg (hora)
DESCASC
Velocidad máxima media en intervalos de 10 minutos(hora)
DESCASC
Precipitaciones diarias en mm
DESCASC
Precipitaciones de 00:00 a 06:00 en mm
DESCASC
Precipitaciones de 06:00 a 12:00 en mm
DESCASC
Precipitaciones de 12:00 a 18:00 en mm
DESCASC
Precipitaciones de 18:00 a 24:00 en mm
DESCASC
13-10-2019 15.5 (01:00) 11.1 (23:40) 13.3 11.94 (06:30) 5 (04:40) -- -- -- -- --
12-10-2019 18.9 (16:00) 9 (02:10) 13.9 10 (15:40) 4.44 (16:40) -- -- -- -- --
10-10-2019 23.2 (17:00) 9 (00:00) 16.1 9.17 (11:50) 5 (11:40) -- -- -- -- --
09-10-2019 18 (16:10) 6.6 (00:00) 12.3 7.5 (17:40) 3.89 (15:40) -- -- -- -- --
08-10-2019 18.6 (14:30) 11.4 (00:00) 15 6.39 (16:30) 3.89 (16:20) -- -- -- -- --
07-10-2019 23.9 (15:50) 7.1 (00:00) 15.5 5.83 (18:10) 3.61 (18:20) -- -- -- -- --
06-10-2019 22 (16:50) 9.9 (00:00) 15.9 5 (13:40) 2.78 (15:50) -- -- -- -- --
05-10-2019 19.1 (14:40) 8.6 (02:00) 13.9 5.28 (14:50) 3.61 (15:00) -- -- -- -- --
04-10-2019 19.2 (18:10) 10.6 (00:00) 14.9 5 (15:50) 3.33 (15:50) -- -- -- -- --
03-10-2019 18.1 (15:50) 6.7 (00:00) 12.4 3.89 (13:30) 2.22 (14:00) -- -- -- -- --
02-10-2019 19.6 (16:50) 10.1 (00:00) 14.9 6.67 (18:00) 4.17 (18:00) -- -- -- -- --
01-10-2019 19.9 (15:10) 14.1 (00:00) 17 7.5 (08:20) 3.89 (08:20) -- -- -- -- --
30-09-2019 20 (13:30) 16.3 (00:00) 18.1 6.67 (17:00) 3.61 (17:00) -- -- -- -- --
29-09-2019 17.2 (18:30) 8.1 (00:00) 12.7 7.22 (15:20) 3.06 (14:30) -- -- -- -- --
28-09-2019 21.6 (17:00) 6 (00:00) 13.8 4.72 (06:00) 2.78 (19:00) -- -- -- -- --
27-09-2019 17.7 (17:50) 10.5 (00:00) 14.1 5 (17:00) 2.78 (17:00) -- -- -- -- --
26-09-2019 20.4 (15:30) 12.5 (00:00) 16.4 6.39 (16:30) 3.61 (14:20) -- -- -- -- --
25-09-2019 18.2 (15:20) 13.2 (00:00) 15.7 5.56 (17:20) 3.33 (16:10) -- -- -- -- --
24-09-2019 18 (14:10) 13.7 (00:00) 15.8 9.44 (01:30) 4.44 (06:50) -- -- -- -- --
23-09-2019 18 (14:10) 13 (00:00) 15.5 10.56 (15:10) 4.72 (15:10) 0 0 0 0 0
22-09-2019 18.6 (16:20) 12.6 (00:00) 15.6 9.72 (17:10) 4.72 (17:30) 0 0 0 0 0
21-09-2019 17.1 (06:00) 14.3 (00:00) 15.7 11.67 (15:20) 5.28 (15:20) 0 0 0 0 0
20-09-2019 20.1 (16:20) 14.1 (00:00) 17.1 6.67 (18:10) 3.33 (18:00) 0 0 0 0 0
19-09-2019 26.5 (16:40) 11.5 (00:00) 19 5.28 (16:10) 2.78 (16:10) 0 0 0 0 0
18-09-2019 27.4 (16:40) 14.4 (00:00) 20.9 7.5 (17:20) 3.89 (11:10) 0 0 0 0 0
17-09-2019 27.9 (14:50) 15.6 (00:00) 21.8 9.72 (22:20) 5.56 (22:00) 0 0 0 0 0
16-09-2019 26.1 (14:50) 16 (00:00) 21.1 8.61 (05:10) 4.72 (05:30) 0 0 0 0 0

Gráficas

Temp. máximas Temp. mínimas Temp. medias Precipitaciones Rachas de viento máximas Velocidades máximas media en intervalos de 10 minutos

Datos horarios

Fecha y hora oficial Temperatura (ºC) Velocidad del viento (km/h) Dirección del viento Racha (km/h) Dirección de racha Precipitación (mm) Presión (hPa) Tendencia (hPa) Humedad (%)
2019-10-15 23:00:00 12.5 12 Sur 28 Sudoeste -- -- -- 96
2019-10-15 22:00:00 12.5 9 Sur 27 Sudoeste -- -- -- 95
2019-10-15 21:00:00 12.5 10 Sur 32 Sur -- -- -- 95
2019-10-15 20:00:00 12.6 11 Sur 26 Sudoeste -- -- -- 95
2019-10-15 19:00:00 12.9 12 Sudoeste 33 Sudoeste -- -- -- 93
2019-10-15 18:00:00 13.4 12 Sur 31 Sudoeste -- -- -- 89
2019-10-15 17:00:00 13.8 13 Sur 32 Sur -- -- -- 89
2019-10-15 16:00:00 13.4 11 Sur 34 Sudoeste -- -- -- 91
2019-10-15 15:00:00 12.4 6 Sudoeste 23 Sudoeste -- -- -- 94
2019-10-15 14:00:00 12.2 8 Sudoeste 26 Sudoeste -- -- -- 95
2019-10-15 13:00:00 12.6 11 Sur 24 Sudoeste -- -- -- 95
2019-10-15 12:00:00 11.4 6 Sudoeste 19 Sur -- -- -- 99
2019-10-15 11:00:00 11 7 Sudoeste 15 Sudoeste -- -- -- 100
2019-10-15 10:00:00 10 4 Sudoeste 13 Sudoeste -- -- -- 100
2019-10-15 09:00:00 9.3 3 Oeste 6 Oeste -- -- -- 100
2019-10-15 08:00:00 9.2 4 Sudoeste 8 Sudoeste -- -- -- 100
2019-10-15 07:00:00 8.8 2 Noroeste 6 Sudoeste -- -- -- 100
2019-10-15 06:00:00 8.7 0 Calma 4 Noroeste -- -- -- 100
2019-10-15 05:00:00 8.6 3 Noroeste 6 Norte -- -- -- 100
2019-10-15 04:00:00 8.6 3 Sudoeste 6 Sur -- -- -- 100
2019-10-15 03:00:00 8 2 Noroeste 5 Noroeste -- -- -- 99
2019-10-15 02:00:00 8.5 4 Noroeste 5 Noroeste -- -- -- 99
2019-10-15 01:00:00 8.8 2 Noroeste 8 Sur -- -- -- 98
2019-10-15 00:00:00 8.6 0 Calma 7 Norte -- -- -- 98
2019-10-14 23:00:00 8.6 2 Sudeste 12 Norte -- -- -- 97
2019-10-14 22:00:00 8.6 0 Calma 6 Sudoeste -- -- -- 96
2019-10-14 21:00:00 9.6 3 Sudoeste 13 Oeste -- -- -- 93
2019-10-14 20:00:00 10 5 Sudoeste 21 Oeste -- -- -- 92
2019-10-14 19:00:00 11.5 6 Oeste 18 Sudoeste -- -- -- 85
2019-10-14 18:00:00 10.7 6 Sur 44 Noroeste -- -- -- 88
2019-10-14 17:00:00 13.1 17 Oeste 29 Oeste -- -- -- 72
2019-10-14 16:00:00 12.2 9 Sudoeste 28 Oeste -- -- -- 89
2019-10-14 15:00:00 12.3 13 Oeste 32 Oeste -- -- -- 84
2019-10-14 14:00:00 11.6 6 Sudoeste 15 Noroeste -- -- -- 96
2019-10-14 13:00:00 10.6 4 Sudoeste 40 Oeste -- -- -- 95
2019-10-14 12:00:00 12 9 Sudoeste 23 Sudoeste -- -- -- 96
2019-10-14 11:00:00 11.3 10 Sudoeste 17 Sudoeste -- -- -- 98
2019-10-14 10:00:00 10.8 4 Sur 26 Sudoeste -- -- -- 98
2019-10-14 09:00:00 10.8 9 Sur 23 Sur -- -- -- 97
2019-10-14 08:00:00 11 3 Sur 16 Sudoeste -- -- -- 96
2019-10-14 07:00:00 11 4 Sur 17 Sur -- -- -- 97
2019-10-14 06:00:00 10.9 4 Sur 14 Sur -- -- -- 99
2019-10-14 05:00:00 10.8 4 Sur 15 Sur -- -- -- 99
2019-10-14 04:00:00 10.7 0 Calma 7 Oeste -- -- -- 99
2019-10-14 03:00:00 10.8 2 Noroeste 5 Noroeste -- -- -- 99
2019-10-14 02:00:00 10.8 0 Calma 5 Sur -- -- -- 99
2019-10-14 01:00:00 11 0 Calma 7 Nordeste -- -- -- 98
2019-10-14 00:00:00 11.1 2 Norte 5 Este -- -- -- 98
2019-10-13 23:00:00 11.4 5 Este 9 Este -- -- -- 98
2019-10-13 22:00:00 11.7 3 Sudeste 11 Oeste -- -- -- 98
2019-10-13 21:00:00 12.1 4 Noroeste 10 Oeste -- -- -- 97
2019-10-13 20:00:00 12.7 3 Sudoeste 14 Oeste -- -- -- 97
2019-10-13 19:00:00 13.5 3 Sur 13 Sudoeste -- -- -- 98
2019-10-13 18:00:00 13.8 7 Oeste 26 Oeste -- -- -- 97
2019-10-13 17:00:00 14.3 5 Oeste 10 Oeste -- -- -- 96
2019-10-13 16:00:00 14.7 4 Oeste 10 Oeste -- -- -- 96
2019-10-13 15:00:00 14.8 3 Oeste 9 Sudoeste -- -- -- 95
2019-10-13 14:00:00 14.8 3 Oeste 8 Sudoeste -- -- -- 92
2019-10-13 13:00:00 14.7 3 Sudoeste 9 Sudoeste 0 -- -- 93
2019-10-13 12:00:00 14.5 6 Sudoeste 16 Oeste 0 -- -- 95
2019-10-13 11:00:00 13.9 3 Sudoeste 14 Oeste 0 -- -- 99
2019-10-13 10:00:00 13.7 9 Oeste 21 Oeste 0 -- -- 98
2019-10-13 09:00:00 14.2 12 Sudoeste 37 Sudoeste 0 -- -- 97
2019-10-13 08:00:00 15.3 13 Sudoeste 39 Sur 0 -- -- 97
2019-10-13 07:00:00 14.8 12 Sur 43 Sudoeste 0 -- -- 97
2019-10-13 06:00:00 14.6 13 Sur 41 Sudoeste 0 -- -- 95
2019-10-13 05:00:00 15 14 Sur 40 Sudoeste 0 -- -- 91
2019-10-13 04:00:00 15.2 14 Sur 39 Sur 0 -- -- 89
2019-10-13 03:00:00 14.7 12 Sur 31 Sur 0 -- -- 91
2019-10-13 02:00:00 15 13 Sur 39 Sur 0 -- -- 87
2019-10-13 01:00:00 15.5 12 Sur 30 Sudoeste 0 -- -- 83
2019-10-13 00:00:00 15.3 8 Sur 31 Sur 0 -- -- 82
2019-10-12 23:00:00 15.3 8 Sur 19 Sur 0 -- -- 83
2019-10-12 22:00:00 15.2 5 Sur 18 Sur 0 -- -- 83
2019-10-12 21:00:00 15.6 9 Sur 30 Sudoeste 0 -- -- 82
2019-10-12 20:00:00 16.4 11 Sudoeste 26 Sur 0 -- -- 80
2019-10-12 19:00:00 17.4 11 Sudoeste 28 Sudoeste 0 -- -- 78
2019-10-12 18:00:00 18 14 Sudoeste 34 Sudoeste 0 -- -- 79
2019-10-12 17:00:00 18.7 13 Sudoeste 33 Sudoeste 0 -- -- 79
2019-10-12 16:00:00 18.9 16 Sudoeste 36 Sudoeste 0 -- -- 78
2019-10-12 15:00:00 18.2 11 Sudoeste 24 Sudoeste 0 -- -- 82
2019-10-12 14:00:00 17.2 5 Sur 19 Sudoeste 0 -- -- 84
2019-10-12 13:00:00 17.1 8 Sudoeste 18 Sudoeste 0 -- -- 83
2019-10-12 12:00:00 15.8 8 Sudoeste 17 Sudoeste 0 -- -- 86
2019-10-12 11:00:00 14.6 5 Sur 13 Sur 0 -- -- 92
2019-10-12 10:00:00 14.1 5 Sur 11 Sur 0 -- -- 93
2019-10-12 09:00:00 13.8 5 Sur 10 Sur 0 -- -- 94
2019-10-12 08:00:00 13.9 5 Sur 12 Sudoeste 0 -- -- 95
2019-10-12 07:00:00 13.4 3 Sur 10 Sur 0 -- -- 97
2019-10-12 06:00:00 12.3 3 Noroeste 5 Oeste 0 -- -- 98
2019-10-12 05:00:00 11.8 0 Calma 5 Noroeste 0 -- -- 99
2019-10-12 04:00:00 10.4 3 Norte 6 Noroeste 0 -- -- 98
2019-10-12 03:00:00 9.6 0 Calma 7 Noroeste 0 -- -- 98
2019-10-12 02:00:00 9.2 0 Calma 4 Noroeste 0 -- -- 96
2019-10-12 01:00:00 10.1 2 Noroeste 7 Norte 0 -- -- 97
2019-10-12 00:00:00 10.1 0 Calma -- -- 0 -- -- 95
2019-10-11 23:00:00 11.2 0 Calma 2 Noroeste 0 -- -- 93
2019-10-11 22:00:00 12.8 0 Calma 4 Noroeste 0 -- -- 92
2019-10-11 21:00:00 14.1 0 Calma 6 Sudoeste 0 -- -- 89
2019-10-11 20:00:00 16.3 2 Sur 15 Oeste 0 -- -- 84
2019-10-11 19:00:00 19 7 Sudoeste 14 Sudoeste 0 -- -- 76
2019-10-11 18:00:00 20.9 6 Sudoeste 16 Oeste 0 -- -- 69
2019-10-11 17:00:00 22.2 9 Oeste 16 Oeste 0 -- -- 62
2019-10-11 16:00:00 22.6 8 Sudoeste 17 Oeste 0 -- -- 60
2019-10-11 15:00:00 22 9 Oeste 20 Sudoeste 0 -- -- 61
2019-10-11 14:00:00 20.6 9 Sudoeste 16 Sudoeste 0 -- -- 63
2019-10-11 13:00:00 19.4 9 Sudoeste 14 Oeste 0 -- -- 68
2019-10-11 12:00:00 17.9 3 Sudoeste 5 Sur 0 -- -- 76
2019-10-11 11:00:00 13.5 0 Calma 5 Noroeste 0 -- -- 88
2019-10-11 10:00:00 8.9 4 Noroeste 7 Noroeste 0 -- -- 96
2019-10-11 09:00:00 7 3 Noroeste 6 Noroeste 0 -- -- 96
2019-10-11 08:00:00 8 4 Noroeste 7 Noroeste 0 -- -- 95
2019-10-11 07:00:00 8 3 Noroeste 9 Noroeste 0 -- -- 95
2019-10-11 06:00:00 8.3 3 Noroeste 8 Norte 0 -- -- 94
2019-10-11 05:00:00 8.4 3 Noroeste 11 Este 0 -- -- 93
2019-10-11 04:00:00 8.2 5 Norte 11 Nordeste 0 -- -- 95
2019-10-11 03:00:00 8.8 5 Noroeste 8 Noroeste 0 -- -- 93
2019-10-11 02:00:00 9.7 3 Noroeste 14 Este 0 -- -- 90
2019-10-11 01:00:00 10.2 4 Norte 15 Nordeste 0 -- -- 88
2019-10-11 00:00:00 10.8 5 Norte 14 Nordeste 0 -- -- 90
2019-10-10 23:00:00 11.3 4 Noroeste 10 Este 0 -- -- 91
2019-10-10 22:00:00 13.3 5 Norte 12 Nordeste 0 -- -- 81
2019-10-10 21:00:00 14.9 2 Norte 6 Nordeste 0 -- -- 85
2019-10-10 20:00:00 18.6 0 Calma 7 Sudoeste 0 -- -- 76
2019-10-10 19:00:00 21 5 Sudoeste 9 Oeste 0 -- -- 63
2019-10-10 18:00:00 22.4 6 Oeste 13 Sur 0 -- -- 58
2019-10-10 17:00:00 23.2 2 Sur 18 Este 0 -- -- 55
2019-10-10 16:00:00 22.4 11 Este 20 Este 0 -- -- 46
2019-10-10 15:00:00 21.5 12 Este 26 Este 0 -- -- 47
2019-10-10 14:00:00 19.7 14 Este 29 Este 0 -- -- 55
2019-10-10 13:00:00 17.8 15 Este 32 Este 0 -- -- 59
2019-10-10 12:00:00 16.4 17 Este 33 Este 0 -- -- 62
2019-10-10 11:00:00 15.3 11 Nordeste 23 Nordeste 0 -- -- 63
2019-10-10 10:00:00 13.1 8 Este 28 Este 0 -- -- 70
2019-10-10 09:00:00 11.6 7 Este 22 Este 0 -- -- 74
2019-10-10 08:00:00 12.1 6 Este 23 Este 0 -- -- 71
2019-10-10 07:00:00 12 9 Este 26 Este 0 -- -- 71
2019-10-10 06:00:00 11.8 9 Este 27 Este 0 -- -- 71
2019-10-10 05:00:00 10.5 7 Nordeste 18 Este 0 -- -- 74
2019-10-10 04:00:00 9.9 3 Norte 19 Nordeste 0 -- -- 78
2019-10-10 03:00:00 10.1 3 Norte 17 Este 0 -- -- 78
2019-10-10 02:00:00 10.7 8 Nordeste 17 Este 0 -- -- 79
2019-10-10 01:00:00 10 3 Nordeste 12 Este 0 -- -- 87
2019-10-10 00:00:00 10.2 2 Nordeste 10 Este 0 -- -- 90
2019-10-09 23:00:00 10.4 3 Nordeste 8 Este 0 -- -- 89
2019-10-09 22:00:00 10.8 4 Nordeste 10 Nordeste 0 -- -- 88
2019-10-09 21:00:00 12.1 6 Este 12 Este 0 -- -- 83
2019-10-09 20:00:00 14.7 3 Nordeste 18 Norte 0 -- -- 70
2019-10-09 19:00:00 16.5 9 Norte 19 Norte 0 -- -- 63
2019-10-09 18:00:00 16.5 4 Nordeste 27 Noroeste 0 -- -- 62
2019-10-09 17:00:00 17.9 8 Norte 21 Este 0 -- -- 59
2019-10-09 16:00:00 17.9 9 Norte 26 Noroeste 0 -- -- 59
2019-10-09 15:00:00 17.4 10 Noroeste 22 Este 0 -- -- 61
2019-10-09 14:00:00 16.7 8 Nordeste 22 Este 0 -- -- 64
2019-10-09 13:00:00 15.6 9 Norte 21 Este 0 -- -- 69
2019-10-09 12:00:00 14.2 5 Norte 18 Este 0 -- -- 76
2019-10-09 11:00:00 12.2 3 Este 9 Norte 0 -- -- 92
2019-10-09 10:00:00 10 3 Este 6 Nordeste 0 -- -- 98
2019-10-09 09:00:00 8.1 4 Este 6 Nordeste 0 -- -- 97
2019-10-09 08:00:00 7.3 3 Nordeste 9 Nordeste 0 -- -- 96
2019-10-09 07:00:00 8.1 4 Nordeste 9 Nordeste 0 -- -- 100
2019-10-09 06:00:00 8.4 4 Nordeste 9 Nordeste 0 -- -- 97
2019-10-09 05:00:00 7 4 Nordeste 8 Nordeste 0 -- -- 98
2019-10-09 04:00:00 7.7 4 Nordeste 8 Nordeste 0 -- -- 96
2019-10-09 03:00:00 8.2 3 Norte 10 Este 0 -- -- 95
2019-10-09 02:00:00 9.2 4 Este 9 Nordeste 0 -- -- 94
2019-10-09 01:00:00 10.4 3 Este 8 Nordeste 0 -- -- 92
2019-10-09 00:00:00 11.4 3 Este 13 Nordeste 0 -- -- 90
2019-10-08 23:00:00 12 4 Nordeste 13 Nordeste 0 -- -- 89
2019-10-08 22:00:00 13 5 Este 15 Norte 0 -- -- 86
2019-10-08 21:00:00 13.8 4 Nordeste 14 Nordeste 0 -- -- 87
2019-10-08 20:00:00 14.6 6 Nordeste 22 Este 0 -- -- 90
2019-10-08 19:00:00 15.4 11 Norte 21 Noroeste 0 -- -- 92
2019-10-08 18:00:00 16.8 5 Noroeste 17 Noroeste 0 -- -- 91
2019-10-08 17:00:00 16.7 10 Noroeste 23 Noroeste 0 -- -- 93
2019-10-08 16:00:00 18.6 9 Noroeste 14 Oeste 0 -- -- 95
2019-10-08 15:00:00 18.2 8 Noroeste 14 Noroeste 0 -- -- 97
2019-10-08 14:00:00 18.2 6 Oeste 15 Oeste 0 -- -- 98
2019-10-08 13:00:00 17.9 6 Oeste 12 Oeste 0 -- -- 98
2019-10-08 12:00:00 17.5 4 Oeste 10 Sudoeste 0 -- -- 98
2019-10-08 11:00:00 17 3 Oeste 6 Oeste 0 -- -- 98
2019-10-08 10:00:00 16.6 0 Calma 5 Noroeste 0 -- -- 98
2019-10-08 09:00:00 16.2 2 Noroeste 4 Noroeste 0 -- -- 98
2019-10-08 08:00:00 16.1 0 Calma 5 Noroeste 0 -- -- 98
2019-10-08 07:00:00 15.8 0 Calma 8 Norte 0 -- -- 97
2019-10-08 06:00:00 15.4 0 Calma 9 Noroeste 0 -- -- 97
2019-10-08 05:00:00 15.3 0 Calma 5 Este 0 -- -- 97
2019-10-08 04:00:00 15.2 2 Noroeste 7 Noroeste 0 -- -- 97
2019-10-08 03:00:00 14.5 0 Calma 8 Noroeste 0 -- -- 97
2019-10-08 02:00:00 13.2 0 Calma 6 Noroeste 0 -- -- 97
2019-10-08 01:00:00 13.5 0 Calma 3 Noroeste 0 -- -- 96
2019-10-08 00:00:00 14 0 Calma 5 Noroeste 0 -- -- 95
2019-10-07 23:00:00 14.5 4 Noroeste 5 Noroeste 0 -- -- 94
2019-10-07 22:00:00 15.8 0 Calma -- -- 0 -- -- 92
2019-10-07 21:00:00 17.6 0 Calma 5 Noroeste 0 -- -- 87
2019-10-07 20:00:00 19.5 0 Calma 15 Noroeste 0 -- -- 80
2019-10-07 19:00:00 20.9 7 Noroeste 21 Noroeste 0 -- -- 73
2019-10-07 18:00:00 22.2 11 Noroeste 19 Noroeste 0 -- -- 68
2019-10-07 17:00:00 23.1 8 Noroeste 15 Noroeste 0 -- -- 63
2019-10-07 16:00:00 23.7 6 Noroeste 15 Oeste 0 -- -- 57
2019-10-07 15:00:00 23.1 8 Sudoeste 15 Sudoeste 0 -- -- 52
2019-10-07 14:00:00 22 9 Sudoeste 16 Sudoeste 0 -- -- 52
2019-10-07 13:00:00 20.8 7 Sudoeste 13 Sudoeste 0 -- -- 62
2019-10-07 12:00:00 18.6 0 Calma 7 Noroeste 0 -- -- 60
2019-10-07 11:00:00 14.6 3 Noroeste 8 Nordeste 0 -- -- 75
2019-10-07 10:00:00 10 3 Noroeste 12 Norte 0 -- -- 88
2019-10-07 09:00:00 7.7 4 Norte 10 Este 0 -- -- 93
2019-10-07 08:00:00 7.1 3 Noroeste 9 Noroeste 0 -- -- 94
2019-10-07 07:00:00 7.3 5 Norte 10 Nordeste 0 -- -- 92
2019-10-07 06:00:00 8.1 3 Nordeste 10 Norte 0 -- -- 89
2019-10-07 05:00:00 8.7 4 Nordeste 15 Nordeste 0 -- -- 86
2019-10-07 04:00:00 8.1 4 Noroeste 9 Nordeste 0 -- -- 92
2019-10-07 03:00:00 9.4 4 Norte 10 Nordeste 0 -- -- 91
2019-10-07 02:00:00 10.1 3 Norte 10 Este 0 -- -- 90
2019-10-07 01:00:00 10.9 4 Nordeste 10 Nordeste 0 -- -- 95
2019-10-07 00:00:00 12.2 3 Norte 8 Nordeste 0 -- -- 94
2019-10-06 23:00:00 13 2 Norte 5 Nordeste 0 -- -- 94
2019-10-06 22:00:00 14.3 3 Noroeste 5 Noroeste 0 -- -- 92
2019-10-06 21:00:00 16.2 0 Calma 6 Noroeste 0 -- -- 88
2019-10-06 20:00:00 18 0 Calma 13 Noroeste 0 -- -- 83
2019-10-06 19:00:00 19.7 9 Noroeste 14 Noroeste 0 -- -- 75
2019-10-06 18:00:00 21.4 6 Noroeste 13 Sudoeste 0 -- -- 68
2019-10-06 17:00:00 21.9 8 Sudoeste 18 Sudoeste 0 -- -- 67
2019-10-06 16:00:00 20.9 8 Noroeste 18 Noroeste 0 -- -- 70
2019-10-06 15:00:00 20.6 5 Oeste 14 Sudoeste 0 -- -- 69
2019-10-06 14:00:00 19.8 7 Sudoeste 18 Sudoeste 0 -- -- 75
2019-10-06 13:00:00 17.8 4 Oeste 13 Sudoeste 0 -- -- 85
2019-10-06 12:00:00 16.6 2 Sur 9 Oeste 0 -- -- 89
2019-10-06 11:00:00 15.7 3 Sudoeste 6 Este 0 -- -- 95
2019-10-06 10:00:00 14.6 2 Norte 9 Nordeste 0 -- -- 99
2019-10-06 09:00:00 13.8 2 Norte 5 Nordeste 0 -- -- 99
2019-10-06 08:00:00 13.3 0 Calma 5 Noroeste 0 -- -- 99
2019-10-06 07:00:00 13.1 3 Norte 5 Norte 0 -- -- 98
2019-10-06 06:00:00 13 2 Nordeste 7 Norte 0 -- -- 98
2019-10-06 05:00:00 11.9 4 Norte 8 Norte 0 -- -- 98
2019-10-06 04:00:00 11.2 0 Calma 6 Noroeste 0 -- -- 97
2019-10-06 03:00:00 11.6 3 Sudeste 9 Norte 0 -- -- 97
2019-10-06 02:00:00 11.1 3 Sudeste 10 Norte 0 -- -- 97
2019-10-06 01:00:00 10.3 4 Norte 10 Norte 0 -- -- 97
2019-10-06 00:00:00 10.4 0 Calma 6 Norte 0 -- -- 95
2019-10-05 23:00:00 11.5 2 Este 11 Nordeste 0 -- -- 94
2019-10-05 22:00:00 12.2 5 Nordeste 8 Nordeste 0 -- -- 94
2019-10-05 21:00:00 13.5 0 Calma 6 Noroeste 0 -- -- 89
2019-10-05 20:00:00 15.5 5 Noroeste 14 Noroeste 0 -- -- 82
2019-10-05 19:00:00 16.4 7 Noroeste 16 Noroeste 0 -- -- 79
2019-10-05 18:00:00 17.5 10 Noroeste 16 Noroeste 0 -- -- 69
2019-10-05 17:00:00 17.7 6 Noroeste 15 Noroeste 0 -- -- 69
2019-10-05 16:00:00 18.1 6 Oeste 19 Noroeste 0 -- -- 69
2019-10-05 15:00:00 18 13 Noroeste 19 Noroeste 0 -- -- 71
2019-10-05 14:00:00 17.2 5 Oeste 15 Oeste 0 -- -- 70
2019-10-05 13:00:00 15.8 3 Sudoeste 11 Sudoeste 0 -- -- 78
2019-10-05 12:00:00 15.9 4 Oeste 11 Sudoeste 0 -- -- 83
2019-10-05 11:00:00 14 2 Sudeste 5 Sur 0 -- -- 96
2019-10-05 10:00:00 12.9 3 Sudoeste 5 Norte 0 -- -- 98
2019-10-05 09:00:00 12.4 0 Calma 3 Este 0 -- -- 98
2019-10-05 08:00:00 12.2 2 Norte 5 Norte 0 -- -- 98
2019-10-05 07:00:00 11.9 3 Noroeste 6 Este 0 -- -- 98
2019-10-05 06:00:00 11.7 4 Norte 8 Este 0 -- -- 99
2019-10-05 05:00:00 10.7 3 Norte 8 Nordeste 0 -- -- 99
2019-10-05 04:00:00 10.4 4 Norte 9 Nordeste 0 -- -- 98
2019-10-05 03:00:00 9.5 2 Norte 6 Noroeste 0 -- -- 98
2019-10-05 02:00:00 8.6 3 Noroeste 6 Noroeste 0 -- -- 97
2019-10-05 01:00:00 9.8 0 Calma 8 Nordeste 0 -- -- 96
2019-10-05 00:00:00 10.6 0 Calma 7 Este 0 -- -- 96
2019-10-04 23:00:00 11.8 0 Calma 6 Noroeste 0 -- -- 95
2019-10-04 22:00:00 13.6 0 Calma 4 Norte 0 -- -- 91
2019-10-04 21:00:00 15.3 0 Calma 7 Noroeste 0 -- -- 86
2019-10-04 20:00:00 16.6 4 Noroeste 12 Noroeste 0 -- -- 80
2019-10-04 19:00:00 18.3 9 Noroeste 14 Noroeste 0 -- -- 75
2019-10-04 18:00:00 19.1 6 Noroeste 14 Noroeste 0 -- -- 72
2019-10-04 17:00:00 18.1 6 Noroeste 15 Noroeste 0 -- -- 78
2019-10-04 16:00:00 18.1 11 Noroeste 18 Noroeste 0 -- -- 75
2019-10-04 15:00:00 18 10 Noroeste 17 Noroeste 0 -- -- 74
2019-10-04 14:00:00 18.5 4 Oeste 14 Noroeste 0 -- -- 72
2019-10-04 13:00:00 17.7 3 Oeste 12 Oeste 0 -- -- 75
2019-10-04 12:00:00 16.9 4 Nordeste 12 Este 0 -- -- 82
2019-10-04 11:00:00 15.2 3 Este 10 Este 0 -- -- 95
2019-10-04 10:00:00 14.3 2 Este 8 Este 0 -- -- 98
2019-10-04 09:00:00 13.9 0 Calma 9 Este 0 -- -- 98
2019-10-04 08:00:00 14.1 0 Calma 9 Noroeste 0 -- -- 98
2019-10-04 07:00:00 14.5 6 Noroeste 17 Noroeste 0 -- -- 99
2019-10-04 06:00:00 15.7 0 Calma 5 Oeste 0 -- -- 99
2019-10-04 05:00:00 15.8 0 Calma 4 Sudoeste 0 -- -- 99
2019-10-04 04:00:00 16 0 Calma 9 Oeste 0 -- -- 99
2019-10-04 03:00:00 16.1 0 Calma 5 Sudoeste 0 -- -- 99
2019-10-04 02:00:00 16.2 0 Calma 5 Oeste 0 -- -- 98
2019-10-04 01:00:00 16.2 0 Calma 3 Oeste 0 -- -- 98
2019-10-04 00:00:00 16.2 0 Calma 6 Sudoeste 0 -- -- 98
2019-10-03 23:00:00 16.2 2 Sur 5 Sur 0 -- -- 98
2019-10-03 22:00:00 16.2 0 Calma 2 Oeste 0 -- -- 97
2019-10-03 21:00:00 16.4 2 Oeste 5 Sudoeste 0 -- -- 96
2019-10-03 20:00:00 16.9 3 Sudoeste 5 Sudeste 0 -- -- 94
2019-10-03 19:00:00 17.3 2 Sudoeste 7 Sur 0 -- -- 92
2019-10-03 18:00:00 17.9 2 Sur 8 Oeste 0 -- -- 88
2019-10-03 17:00:00 17.9 2 Sur 6 Sudoeste 0 -- -- 83
2019-10-03 16:00:00 18 4 Sudoeste 10 Oeste 0 -- -- 81
2019-10-03 15:00:00 18 5 Sudoeste 12 Sudoeste 0 -- -- 77
2019-10-03 14:00:00 17.4 8 Oeste 14 Sudoeste 0 -- -- 79
2019-10-03 13:00:00 16.8 7 Sudoeste 13 Sudoeste 0 -- -- 82
2019-10-03 12:00:00 15.6 0 Calma 6 Oeste 0 -- -- 88
2019-10-03 11:00:00 12.6 0 Calma 7 Norte 0 -- -- 98
2019-10-03 10:00:00 8.9 0 Calma 6 Noroeste 0 -- -- 99
2019-10-03 09:00:00 6.8 5 Norte 9 Norte 0 -- -- 99
2019-10-03 08:00:00 6.9 3 Noroeste 9 Norte 0 -- -- 98
2019-10-03 07:00:00 7 0 Calma 9 Noroeste 0 -- -- 98
2019-10-03 06:00:00 7.2 2 Este 9 Noroeste 0 -- -- 98
2019-10-03 05:00:00 7.4 3 Norte 6 Noroeste 0 -- -- 97
2019-10-03 04:00:00 7.9 0 Calma 11 Norte 0 -- -- 96
2019-10-03 03:00:00 9 4 Norte 9 Norte 0 -- -- 96
2019-10-03 02:00:00 9 3 Noroeste 10 Noroeste 0 -- -- 95
2019-10-03 01:00:00 9.6 7 Noroeste 10 Noroeste 0 -- -- 95
2019-10-03 00:00:00 10.1 8 Norte 12 Noroeste 0 -- -- 95
2019-10-02 23:00:00 11.1 5 Norte 14 Nordeste 0 -- -- 93
2019-10-02 22:00:00 12.6 8 Nordeste 13 Nordeste 0 -- -- 92
2019-10-02 21:00:00 14 4 Nordeste 8 Nordeste 0 -- -- 89
2019-10-02 20:00:00 16.4 0 Calma 9 Oeste 0 -- -- 81
2019-10-02 19:00:00 17.8 4 Noroeste 21 Noroeste 0 -- -- 74
2019-10-02 18:00:00 18.7 15 Noroeste 24 Noroeste 0 -- -- 63
2019-10-02 17:00:00 19.3 13 Noroeste 21 Noroeste 0 -- -- 62
2019-10-02 16:00:00 18.7 8 Norte 22 Noroeste 0 -- -- 64
2019-10-02 15:00:00 18.2 12 Noroeste 23 Noroeste 0 -- -- 65
2019-10-02 14:00:00 17.1 10 Noroeste 19 Noroeste 0 -- -- 69
2019-10-02 13:00:00 16.9 8 Este 17 Este 0 -- -- 66
2019-10-02 12:00:00 15.3 4 Norte 13 Noroeste 0 -- -- 76
2019-10-02 11:00:00 14.3 2 Noroeste 6 Noroeste 0 -- -- 85
2019-10-02 10:00:00 12.2 0 Calma 5 Noroeste 0 -- -- 99
2019-10-02 09:00:00 11.1 0 Calma 5 Noroeste 0 -- -- 99
2019-10-02 08:00:00 10.8 0 Calma 5 Noroeste 0 -- -- 98
2019-10-02 07:00:00 10.9 3 Nordeste 6 Nordeste 0 -- -- 99
2019-10-02 06:00:00 11.2 0 Calma 5 Nordeste 0 -- -- 98
2019-10-02 05:00:00 11.8 0 Calma 6 Noroeste 0 -- -- 98
2019-10-02 04:00:00 12.2 2 Norte 4 Noroeste 0 -- -- 98
2019-10-02 03:00:00 12.6 0 Calma 5 Norte 0 -- -- 97
2019-10-02 02:00:00 13 0 Calma -- -- 0 -- -- 97
2019-10-02 01:00:00 13.2 0 Calma 4 Sur 0 -- -- 95
2019-10-02 00:00:00 14.1 0 Calma 4 Oeste 0 -- -- 94
2019-10-01 23:00:00 14.6 4 Noroeste 8 Oeste 0 -- -- 93
2019-10-01 22:00:00 14.8 0 Calma 11 Noroeste 0 -- -- 92
2019-10-01 21:00:00 15.1 3 Noroeste 13 Oeste 0 -- -- 89
2019-10-01 20:00:00 15.8 5 Oeste 20 Oeste 0 -- -- 84
2019-10-01 19:00:00 16.9 10 Oeste 24 Oeste 0 -- -- 82
2019-10-01 18:00:00 17.9 11 Oeste 22 Oeste 0 -- -- 78
2019-10-01 17:00:00 18 10 Oeste 26 Oeste 0 -- -- 78
2019-10-01 16:00:00 18.6 12 Oeste 24 Oeste 0 -- -- 74
2019-10-01 15:00:00 19.8 10 Sudoeste 24 Sudoeste 0 -- -- 72
2019-10-01 14:00:00 18.1 11 Noroeste 24 Sudoeste 0 -- -- 80
2019-10-01 13:00:00 17.9 9 Oeste 19 Oeste 0 -- -- 89
2019-10-01 12:00:00 16.5 8 Oeste 17 Oeste 0 -- -- 95
2019-10-01 11:00:00 16 7 Oeste 16 Oeste 0 -- -- 97
2019-10-01 10:00:00 15.5 4 Oeste 8 Oeste 0 -- -- 98
2019-10-01 09:00:00 15.4 3 Sudoeste 27 Oeste 0 -- -- 98
2019-10-01 08:00:00 15.7 5 Oeste 12 Oeste 0 -- -- 98
2019-10-01 07:00:00 15.5 5 Oeste 14 Oeste 0 -- -- 98
2019-10-01 06:00:00 15.4 3 Sudoeste 15 Oeste 0 -- -- 97
2019-10-01 05:00:00 15.7 5 Sudoeste 14 Sur 0 -- -- 95
2019-10-01 04:00:00 16.1 5 Sur 14 Sudoeste 0 -- -- 92
2019-10-01 03:00:00 16.1 6 Sudoeste 15 Sur 0 -- -- 90
2019-10-01 02:00:00 16 5 Oeste 12 Sudoeste 0 -- -- 92
2019-10-01 01:00:00 16.1 3 Sudoeste 8 Sudoeste 0 -- -- 93
2019-10-01 00:00:00 16.3 2 Sudoeste 14 Sudoeste 0 -- -- 95
2019-09-30 23:00:00 16.5 4 Sudoeste 15 Sudoeste 0 -- -- 96
2019-09-30 22:00:00 16.5 2 Sudoeste 13 Sur 0 -- -- 95
2019-09-30 21:00:00 16.9 3 Oeste 8 Sudoeste 0 -- -- 94
2019-09-30 20:00:00 17.8 4 Sudoeste 11 Oeste 0 -- -- 91
2019-09-30 19:00:00 18.3 5 Oeste 16 Oeste 0 -- -- 89
2019-09-30 18:00:00 19.2 9 Sudoeste 23 Oeste 0 -- -- 88
2019-09-30 17:00:00 19.4 13 Oeste 24 Oeste 0 -- -- 87
2019-09-30 16:00:00 19.6 12 Sudoeste 20 Oeste 0 -- -- 93
2019-09-30 15:00:00 19 9 Oeste 23 Oeste 0 -- -- 92
2019-09-30 14:00:00 19.9 7 Oeste 15 Sudeste 0 -- -- 89
2019-09-30 13:00:00 19.3 7 Sur 17 Sudoeste 0 -- -- 96
2019-09-30 12:00:00 18.2 4 Sur 13 Sudoeste 0 -- -- 99
2019-09-30 11:00:00 17.7 5 Sudoeste 13 Sudoeste 0 -- -- 100
2019-09-30 10:00:00 17.3 3 Sudoeste 8 Oeste 0 -- -- 99
2019-09-30 09:00:00 17.1 0 Calma 6 Sur 0 -- -- 99
2019-09-30 08:00:00 17.1 0 Calma 10 Oeste 0 -- -- 99
2019-09-30 07:00:00 17.1 3 Sudoeste 9 Sur 0 -- -- 99
2019-09-30 06:00:00 17.2 3 Oeste 9 Sur 0 -- -- 99
2019-09-30 05:00:00 17.1 3 Sur 12 Sudoeste 0 -- -- 99
2019-09-30 04:00:00 17.1 4 Sur 11 Sur 0 -- -- 99
2019-09-30 03:00:00 17 0 Calma 4 Oeste 0 -- -- 99
2019-09-30 02:00:00 17 0 Calma 3 Noroeste 0 -- -- 99
2019-09-30 01:00:00 17 0 Calma 5 Oeste 0 -- -- 99
2019-09-30 00:00:00 17 2 Oeste 10 Sudoeste 0 -- -- 99
2019-09-29 23:00:00 16.9 5 Sudoeste 9 Sur 0 -- -- 99
2019-09-29 22:00:00 17 4 Sudoeste 10 Sur 0 -- -- 99
2019-09-29 21:00:00 17 5 Sudoeste 12 Sudoeste 0 -- -- 98
2019-09-29 20:00:00 17.1 5 Sudoeste 12 Sudoeste 0 -- -- 98
2019-09-29 19:00:00 17.1 3 Sur 16 Sudoeste 0 -- -- 98
2019-09-29 18:00:00 17.1 6 Sur 18 Sudoeste 0 -- -- 98
2019-09-29 17:00:00 17 6 Sur 17 Sudoeste 0 -- -- 97
2019-09-29 16:00:00 16.9 10 Sudoeste 26 Sur 0 -- -- 97
2019-09-29 15:00:00 16.7 9 Sur 25 Sudoeste 0 -- -- 97
2019-09-29 14:00:00 16.4 8 Sur 18 Sur 0 -- -- 98
2019-09-29 13:00:00 16.1 7 Sur 23 Sur 0 -- -- 98
2019-09-29 12:00:00 15.8 8 Sudoeste 18 Sur 0 -- -- 98
2019-09-29 11:00:00 15.2 5 Sur 15 Sudoeste 0 -- -- 99
2019-09-29 10:00:00 14.5 4 Sur 15 Sudoeste 0 -- -- 99
2019-09-29 09:00:00 13.3 0 Calma 6 Noroeste 0 -- -- 99
2019-09-29 08:00:00 12.7 0 Calma 7 Noroeste 0 -- -- 99
2019-09-29 07:00:00 11.7 3 Noroeste 5 Noroeste 0 -- -- 99
2019-09-29 06:00:00 11 0 Calma 4 Noroeste 0 -- -- 98
2019-09-29 05:00:00 10.3 0 Calma 8 Noroeste 0 -- -- 98
2019-09-29 04:00:00 9.4 5 Noroeste 8 Noroeste 0 -- -- 98
2019-09-29 03:00:00 9.1 3 Noroeste 9 Noroeste 0 -- -- 98
2019-09-29 02:00:00 8.2 3 Norte 8 Norte 0 -- -- 97
2019-09-29 01:00:00 8.7 2 Nordeste 9 Noroeste 0 -- -- 96
2019-09-29 00:00:00 9.3 2 Norte 6 Norte 0 -- -- 95
2019-09-28 23:00:00 10.3 5 Norte 8 Noroeste 0 -- -- 94
2019-09-28 22:00:00 12 3 Noroeste 4 Noroeste 0 -- -- 91
2019-09-28 21:00:00 14.4 0 Calma 9 Oeste 0 -- -- 86
2019-09-28 20:00:00 17 4 Sudoeste 14 Oeste 0 -- -- 76
2019-09-28 19:00:00 19.3 10 Oeste 15 Oeste 0 -- -- 69
2019-09-28 18:00:00 20.4 7 Sudoeste 16 Sudoeste 0 -- -- 65
2019-09-28 17:00:00 21.6 9 Sudoeste 17 Sudoeste 0 -- -- 60
2019-09-28 16:00:00 21 6 Sudoeste 16 Oeste 0 -- -- 64
2019-09-28 15:00:00 20.1 5 Sudoeste 16 Sudoeste 0 -- -- 63
2019-09-28 14:00:00 18.8 7 Oeste 14 Sudoeste 0 -- -- 67
2019-09-28 13:00:00 16.8 4 Oeste 9 Noroeste 0 -- -- 72
2019-09-28 12:00:00 15.5 3 Sur 7 Sudeste 0 -- -- 78
2019-09-28 11:00:00 13.1 0 Calma 7 Noroeste 0 -- -- 93
2019-09-28 10:00:00 9.4 6 Noroeste 12 Nordeste 0 -- -- 99
2019-09-28 09:00:00 6.8 5 Norte 12 Noroeste 0 -- -- 98
2019-09-28 08:00:00 6.5 5 Norte 9 Norte 0 -- -- 98
2019-09-28 07:00:00 6.4 5 Noroeste 11 Nordeste 0 -- -- 98
2019-09-28 06:00:00 8.2 7 Nordeste 17 Norte 0 -- -- 98
2019-09-28 05:00:00 8.6 7 Nordeste 15 Nordeste 0 -- -- 95
2019-09-28 04:00:00 8.2 6 Norte 13 Este 0 -- -- 97
2019-09-28 03:00:00 8.7 6 Norte 13 Nordeste 0 -- -- 97
2019-09-28 02:00:00 9.1 5 Norte 14 Nordeste 0 -- -- 95
2019-09-28 01:00:00 10.3 8 Nordeste 12 Nordeste 0 -- -- 96
2019-09-28 00:00:00 10.5 4 Nordeste 9 Nordeste 0 -- -- 96
2019-09-27 23:00:00 11.9 3 Nordeste 7 Nordeste 0 -- -- 96
2019-09-27 22:00:00 12.5 0 Calma 4 Este 0 -- -- 94
2019-09-27 21:00:00 13.8 0 Calma 6 Noroeste 0 -- -- 92
2019-09-27 20:00:00 16 5 Noroeste 15 Oeste 0 -- -- 84
2019-09-27 19:00:00 17.3 8 Oeste 16 Oeste 0 -- -- 77
2019-09-27 18:00:00 17.6 8 Oeste 17 Oeste 0 -- -- 81
2019-09-27 17:00:00 17.6 10 Oeste 18 Oeste 0 -- -- 83
2019-09-27 16:00:00 16.6 8 Oeste 16 Oeste 0 -- -- 95
2019-09-27 15:00:00 16.4 8 Oeste 17 Sudoeste 0 -- -- 98
2019-09-27 14:00:00 15.7 4 Oeste 10 Sudoeste 0 -- -- 98
2019-09-27 13:00:00 15.3 4 Sudoeste 13 Sudoeste 0 -- -- 98
2019-09-27 12:00:00 15 5 Sudoeste 15 Sudoeste 0 -- -- 97
2019-09-27 11:00:00 14.7 4 Oeste 15 Sudoeste 0 -- -- 98
2019-09-27 10:00:00 14.4 6 Sudoeste 15 Sudoeste 0 -- -- 97
2019-09-27 09:00:00 14 3 Oeste 8 Sudoeste 0 -- -- 97
2019-09-27 08:00:00 13.9 0 Calma 6 Este 0 -- -- 95
2019-09-27 07:00:00 14.2 3 Sur 7 Sudoeste 0 -- -- 93
2019-09-27 06:00:00 14.4 0 Calma 7 Sudoeste 0 -- -- 91
2019-09-27 05:00:00 14.1 0 Calma 7 Sur 0 -- -- 92
2019-09-27 04:00:00 14.2 3 Oeste 5 Oeste 0 -- -- 93
2019-09-27 03:00:00 13.8 3 Noroeste 5 Noroeste 0 -- -- 95
2019-09-27 02:00:00 13.5 0 Calma 4 Noroeste 0 -- -- 94
2019-09-27 01:00:00 13.4 0 Calma 3 Noroeste 0 -- -- 94
2019-09-27 00:00:00 13.1 0 Calma 5 Noroeste 0 -- -- 94
2019-09-26 23:00:00 13.5 3 Noroeste 5 Sur 0 -- -- 91
2019-09-26 22:00:00 14.3 2 Noroeste 4 Noroeste 0 -- -- 89
2019-09-26 21:00:00 15.1 0 Calma 10 Noroeste 0 -- -- 82
2019-09-26 20:00:00 16.7 7 Oeste 16 Oeste 0 -- -- 75
2019-09-26 19:00:00 17.5 10 Oeste 19 Sudoeste 0 -- -- 73
2019-09-26 18:00:00 18.6 10 Oeste 22 Oeste 0 -- -- 69
2019-09-26 17:00:00 19.3 11 Oeste 23 Noroeste 0 -- -- 68
2019-09-26 16:00:00 19.1 9 Oeste 21 Oeste 0 -- -- 68
2019-09-26 15:00:00 19.2 10 Sudoeste 22 Sudoeste 0 -- -- 67
2019-09-26 14:00:00 18.8 10 Sudoeste 22 Oeste 0 -- -- 72
2019-09-26 13:00:00 18.2 9 Sudoeste 18 Sudoeste 0 -- -- 72
2019-09-26 12:00:00 16.6 7 Sudoeste 18 Oeste 0 -- -- 85
2019-09-26 11:00:00 15 5 Sudoeste 9 Oeste 0 -- -- 96
2019-09-26 10:00:00 13.6 2 Sur 4 Sudoeste 0 -- -- 99
2019-09-26 09:00:00 12.6 0 Calma 6 Norte 0 -- -- 98
2019-09-26 08:00:00 13.1 0 Calma 5 Sudoeste 0 -- -- 97
2019-09-26 07:00:00 13.4 2 Oeste 6 Sudoeste 0 -- -- 97
2019-09-26 06:00:00 13.6 2 Sudoeste 5 Sudoeste 0 -- -- 98
2019-09-26 05:00:00 13.2 0 Calma 4 Sur 0 -- -- 97
2019-09-26 04:00:00 13.3 0 Calma 3 Sur 0 -- -- 97
2019-09-26 03:00:00 14 0 Calma 7 Sudoeste 0 -- -- 96
2019-09-26 02:00:00 14.1 4 Sur 9 Sur 0 -- -- 97
2019-09-26 01:00:00 14.3 0 Calma 8 Oeste 0 -- -- 97
2019-09-26 00:00:00 14.4 4 Sudoeste 12 Sudoeste 0 -- -- 97
2019-09-25 23:00:00 14.4 2 Sudoeste 7 Sudoeste 0 -- -- 96
2019-09-25 22:00:00 14.6 5 Sudoeste 10 Oeste 0 -- -- 96
2019-09-25 21:00:00 14.8 5 Oeste 16 Oeste 0 -- -- 93
2019-09-25 20:00:00 15.4 6 Sudoeste 19 Sudoeste 0 -- -- 86
2019-09-25 19:00:00 16.4 7 Sudoeste 14 Sudoeste 0 -- -- 83
2019-09-25 18:00:00 16.7 9 Oeste 20 Oeste 0 -- -- 75
2019-09-25 17:00:00 17.5 8 Sudoeste 18 Oeste 0 -- -- 75
2019-09-25 16:00:00 17.5 9 Oeste 18 Oeste 0 -- -- 72
2019-09-25 15:00:00 17.3 6 Oeste 15 Oeste 0 -- -- 78
2019-09-25 14:00:00 17 6 Oeste 18 Sudoeste 0 -- -- 77
2019-09-25 13:00:00 16.5 8 Oeste 15 Oeste 0 -- -- 79
2019-09-25 12:00:00 15.6 6 Oeste 13 Noroeste 0 -- -- 84
2019-09-25 11:00:00 14.5 0 Calma 8 Oeste 0 -- -- 95
2019-09-25 10:00:00 13.7 3 Oeste 6 Sudoeste 0 -- -- 98
2019-09-25 09:00:00 13.4 2 Sudoeste 6 Oeste 0 -- -- 98
2019-09-25 08:00:00 13.3 3 Sudoeste 6 Sudoeste 0 -- -- 98
2019-09-25 07:00:00 13.3 2 Sur 6 Sur 0 -- -- 98
2019-09-25 06:00:00 13.4 0 Calma 8 Sudoeste 0 -- -- 97
2019-09-25 05:00:00 13.5 2 Oeste 12 Oeste 0 -- -- 97
2019-09-25 04:00:00 13.7 4 Oeste 17 Sudoeste 0 -- -- 97
2019-09-25 03:00:00 13.7 4 Sudoeste 13 Oeste 0 -- -- 97
2019-09-25 02:00:00 13.7 3 Oeste 9 Oeste 0 -- -- 96
2019-09-25 01:00:00 13.8 3 Oeste 11 Oeste 0 -- -- 96
2019-09-25 00:00:00 13.8 4 Sudoeste 10 Sudoeste 0 -- -- 94
2019-09-24 23:00:00 13.8 4 Sudoeste 6 Sur 0 -- -- 94
2019-09-24 22:00:00 14.3 4 Sudoeste 11 Sur 0 -- -- 92
2019-09-24 21:00:00 14.8 4 Sudoeste 16 Oeste 0 -- -- 89
2019-09-24 20:00:00 15.5 7 Oeste 23 Oeste 0 -- -- 83
2019-09-24 19:00:00 16.3 12 Oeste 26 Oeste 0 -- -- 79
2019-09-24 18:00:00 16.5 11 Oeste 25 Oeste 0 -- -- 77
2019-09-24 17:00:00 17 15 Noroeste 24 Oeste 0 -- -- 79
2019-09-24 16:00:00 17.1 11 Oeste 22 Oeste 0 -- -- 85
2019-09-24 15:00:00 17.4 13 Sudoeste 26 Oeste 0 -- -- 84
2019-09-24 14:00:00 17.8 12 Sudoeste 24 Sudoeste 0 -- -- 91
2019-09-24 13:00:00 17.4 10 Oeste 24 Sudoeste 0 -- -- 90
2019-09-24 12:00:00 17.4 10 Sudoeste 21 Sudoeste 0 -- -- 96
2019-09-24 11:00:00 16.3 6 Oeste 21 Oeste 0 -- -- 98
2019-09-24 10:00:00 16 9 Oeste 23 Oeste 0 -- -- 99
2019-09-24 09:00:00 16.4 6 Oeste 24 Oeste 0 -- -- 99
2019-09-24 08:00:00 16.5 13 Oeste 33 Sudoeste 0 -- -- 99
2019-09-24 07:00:00 17 15 Oeste 30 Oeste 0 -- -- 98
2019-09-24 06:00:00 16.5 6 Sudoeste 17 Sudoeste 0 -- -- 98
2019-09-24 05:00:00 15.7 8 Sudoeste 26 Sur 0 -- -- 98
2019-09-24 04:00:00 15.5 12 Sur 28 Sudoeste 0 -- -- 97
2019-09-24 03:00:00 15.5 12 Sur 30 Sur 0 -- -- 95
2019-09-24 02:00:00 15.6 13 Sur 34 Sur 0 -- -- 93
2019-09-24 01:00:00 15.8 14 Sur 29 Sur 0 -- -- 89
2019-09-24 00:00:00 15.6 8 Sur 31 Sur 0 -- -- 91
2019-09-23 23:00:00 15.7 15 Sur 37 Sur 0 -- -- 90
2019-09-23 22:00:00 15.9 11 Sudoeste 26 Sudoeste 0 -- -- 85
2019-09-23 21:00:00 16.6 11 Sur 36 Sudoeste 0 -- -- 81
2019-09-23 20:00:00 16.8 13 Sur 30 Sudoeste 0 -- -- 81
2019-09-23 19:00:00 16.9 13 Sur 32 Sudoeste 0 -- -- 80
2019-09-23 18:00:00 17.3 12 Sudoeste 33 Oeste 0 -- -- 81
2019-09-23 17:00:00 17.6 14 Sudoeste 30 Sudoeste 0 -- -- 79
2019-09-23 16:00:00 17.7 13 Sur 38 Sudoeste 0 -- -- 78
2019-09-23 15:00:00 18 15 Sudoeste 33 Sudoeste 0 -- -- 78
2019-09-23 14:00:00 17.9 16 Sudoeste 36 Sudoeste 0 -- -- 77
2019-09-23 13:00:00 17 14 Sur 35 Sudoeste 0 -- -- 81
2019-09-23 12:00:00 15.6 12 Sur 26 Sur 0 -- -- 84
2019-09-23 11:00:00 15.1 10 Sur 24 Sur 0 -- -- 86
2019-09-23 10:00:00 14.3 8 Sur 24 Sudoeste 0 -- -- 90
2019-09-23 09:00:00 13.4 4 Sur 14 Sudoeste 0 -- -- 92
2019-09-23 08:00:00 13.3 4 Sur 13 Sur 0 -- -- 92
2019-09-23 07:00:00 13.4 6 Sur 14 Sudeste 0 -- -- 92
2019-09-23 06:00:00 13.3 4 Sur 12 Sur 0 -- -- 93
2019-09-23 05:00:00 13.3 5 Sur 13 Sudoeste 0 -- -- 95
2019-09-23 04:00:00 13.3 5 Sur 15 Sur 0 -- -- 96
2019-09-23 03:00:00 13.2 5 Sur 17 Sur 0 -- -- 95
2019-09-23 02:00:00 13.4 6 Sur 15 Sur 0 -- -- 95
2019-09-23 01:00:00 13.4 6 Sudoeste 13 Sur 0 -- -- 95
2019-09-23 00:00:00 13 3 Sur 7 Sudoeste 0 -- -- 94
2019-09-22 23:00:00 13.2 0 Calma 7 Sudoeste 0 -- -- 91
2019-09-22 22:00:00 14.1 3 Sur 13 Sudoeste 0 -- -- 90
2019-09-22 21:00:00 14.6 8 Sudoeste 17 Sudoeste 0 -- -- 89
2019-09-22 20:00:00 15.6 8 Sudoeste 27 Sudoeste 0 -- -- 83
2019-09-22 19:00:00 16.7 10 Oeste 35 Oeste 0 -- -- 77
2019-09-22 18:00:00 17.9 13 Oeste 35 Oeste 0 -- -- 70
2019-09-22 17:00:00 18.3 14 Sudoeste 33 Oeste 0 -- -- 68
2019-09-22 16:00:00 18.2 12 Oeste 31 Sudoeste 0 -- -- 70
2019-09-22 15:00:00 17.3 15 Sudoeste 28 Oeste 0 -- -- 74
2019-09-22 14:00:00 15.9 9 Oeste 25 Sudoeste 0 -- -- 83
2019-09-22 13:00:00 16.1 10 Sudoeste 25 Sudoeste 0 -- -- 86
2019-09-22 12:00:00 14.9 7 Sudoeste 15 Noroeste 0 -- -- 95
2019-09-22 11:00:00 14.6 5 Sudoeste 10 Sudoeste 0 -- -- 96
2019-09-22 10:00:00 13.5 3 Sur 7 Sur 0 -- -- 97
2019-09-22 09:00:00 13.1 4 Sudoeste 10 Oeste 0 -- -- 96
2019-09-22 08:00:00 12.9 5 Sudoeste 14 Sudoeste 0 -- -- 96
2019-09-22 07:00:00 12.6 6 Sudoeste 13 Sur 0 -- -- 96
2019-09-22 06:00:00 13 5 Sudoeste 24 Sudoeste 0 -- -- 95
2019-09-22 05:00:00 13.5 9 Sudoeste 25 Oeste 0 -- -- 95
2019-09-22 04:00:00 13.8 10 Oeste 23 Sudoeste 0 -- -- 96
2019-09-22 03:00:00 14.2 6 Sudoeste 25 Oeste 0 -- -- 96
2019-09-22 02:00:00 14.4 8 Sudoeste 34 Sudoeste 0 -- -- 95
2019-09-22 01:00:00 14.6 14 Sudoeste 33 Sur 0 -- -- 94
2019-09-22 00:00:00 14.4 8 Sur 29 Sudoeste 0 -- -- 94
2019-09-21 23:00:00 14.3 8 Sur 21 Sur 0 -- -- 95
2019-09-21 22:00:00 14.3 5 Sur 17 Sudoeste 0 -- -- 94
2019-09-21 21:00:00 14.7 6 Sur 22 Sudoeste 0 -- -- 94
2019-09-21 20:00:00 15 10 Sudoeste 21 Sudoeste 0 -- -- 95
2019-09-21 19:00:00 15.1 13 Oeste 26 Oeste 0 -- -- 96
2019-09-21 18:00:00 14.4 10 Oeste 31 Oeste 0 -- -- 97
2019-09-21 17:00:00 15.1 17 Oeste 31 Sudoeste 0 -- -- 97
2019-09-21 16:00:00 16.5 13 Sudoeste 42 Sudoeste 0 -- -- 96
2019-09-21 15:00:00 16.6 17 Sudoeste 39 Sur 0 -- -- 96
2019-09-21 14:00:00 16.5 15 Sudoeste 39 Sudoeste 0 -- -- 96
2019-09-21 13:00:00 16.2 12 Sur 35 Sudoeste 0 -- -- 95
2019-09-21 12:00:00 16.9 9 Sur 28 Sudoeste 0 -- -- 95
2019-09-21 11:00:00 16.4 9 Sur 31 Sudoeste 0 -- -- 96
2019-09-21 10:00:00 16.2 8 Sur 29 Sur 0 -- -- 95
2019-09-21 09:00:00 16.4 8 Sur 27 Sur 0 -- -- 93
2019-09-21 08:00:00 16.7 10 Sur 27 Sudoeste 0 -- -- 89
2019-09-21 07:00:00 17 6 Sur 30 Sur 0 -- -- 85
2019-09-21 06:00:00 17.1 12 Sur 29 Sudeste 0 -- -- 84
2019-09-21 05:00:00 16.5 8 Sudeste 19 Sur 0 -- -- 87
2019-09-21 04:00:00 16.5 7 Sur 20 Sudoeste 0 -- -- 85
2019-09-21 03:00:00 16.5 6 Sur 20 Sur 0 -- -- 85
2019-09-21 02:00:00 16 7 Sur 19 Sudeste 0 -- -- 87
2019-09-21 01:00:00 15.4 8 Sur 16 Sudeste 0 -- -- 89
2019-09-21 00:00:00 14.8 4 Sur 15 Sudeste 0 -- -- 94
2019-09-20 23:00:00 14.4 2 Sur 6 Noroeste 0 -- -- 94
2019-09-20 22:00:00 14.9 2 Sudeste 6 Sudeste 0 -- -- 93
2019-09-20 21:00:00 15.9 0 Calma 4 Sudoeste 0 -- -- 90
2019-09-20 20:00:00 16.9 4 Oeste 15 Oeste 0 -- -- 86
2019-09-20 19:00:00 18.2 8 Oeste 24 Noroeste 0 -- -- 81
2019-09-20 18:00:00 20 12 Oeste 22 Sudoeste 0 -- -- 76
2019-09-20 17:00:00 19.5 6 Noroeste 17 Sudoeste 0 -- -- 76
2019-09-20 16:00:00 19.7 11 Sudoeste 20 Sudoeste 0 -- -- 76
2019-09-20 15:00:00 18.1 7 Sur 18 Sudoeste 0 -- -- 85
2019-09-20 14:00:00 16.5 5 Sudoeste 15 Sudoeste 0 -- -- 91
2019-09-20 13:00:00 16.7 8 Sudoeste 16 Oeste 0 -- -- 89
2019-09-20 12:00:00 16.4 5 Sudoeste 13 Sudoeste 0 -- -- 95
2019-09-20 11:00:00 16 4 Oeste 8 Oeste 0 -- -- 98
2019-09-20 10:00:00 14.7 3 Este 5 Este 0 -- -- 99
2019-09-20 09:00:00 14.3 0 Calma 4 Nordeste 0 -- -- 99
2019-09-20 08:00:00 14.3 0 Calma 6 Sudeste 0 -- -- 99
2019-09-20 07:00:00 14.3 0 Calma 6 Sudoeste 0 -- -- 98
2019-09-20 06:00:00 14.2 3 Sur 5 Sur 0 -- -- 98
2019-09-20 05:00:00 14.3 0 Calma 6 Sudoeste 0 -- -- 98
2019-09-20 04:00:00 14.3 3 Sudoeste 7 Oeste 0 -- -- 98
2019-09-20 03:00:00 14.4 3 Norte 7 Norte 0 -- -- 98
2019-09-20 02:00:00 14.4 0 Calma 5 Sudoeste 0 -- -- 98
2019-09-20 01:00:00 14.4 2 Sur 10 Sudoeste 0 -- -- 97
2019-09-20 00:00:00 14.5 5 Norte 12 Este 0 -- -- 97
2019-09-19 23:00:00 14.6 6 Sudoeste 14 Sudoeste 0 -- -- 96
2019-09-19 22:00:00 15 0 Calma 9 Sudoeste 0 -- -- 93
2019-09-19 21:00:00 16.5 4 Sur 14 Sudoeste 0 -- -- 87
2019-09-19 20:00:00 19.3 4 Sudoeste 15 Oeste 0 -- -- 80
2019-09-19 19:00:00 22.3 10 Sudoeste 18 Oeste 0 -- -- 69
2019-09-19 18:00:00 24.5 7 Sudoeste 18 Oeste 0 -- -- 61
2019-09-19 17:00:00 25.7 10 Sudoeste 19 Oeste 0 -- -- 58
2019-09-19 16:00:00 25.7 10 Sudoeste 17 Sudoeste 0 -- -- 59
2019-09-19 15:00:00 23.6 8 Sudoeste 16 Sudoeste 0 -- -- 67
2019-09-19 14:00:00 23 10 Sudoeste 19 Sudoeste 0 -- -- 68
2019-09-19 13:00:00 20.9 7 Sudoeste 14 Sudoeste 0 -- -- 74
2019-09-19 12:00:00 19.5 7 Sudoeste 14 Sur 0 -- -- 79
2019-09-19 11:00:00 18.2 6 Sudoeste 12 Sudoeste 0 -- -- 84
2019-09-19 10:00:00 15.3 0 Calma 6 Sudoeste 0 -- -- 97
2019-09-19 09:00:00 12.2 0 Calma 2 Sudeste 0 -- -- 96
2019-09-19 08:00:00 11.7 0 Calma 3 Sur 0 -- -- 96
2019-09-19 07:00:00 11.5 2 Noroeste 5 Noroeste 0 -- -- 95
2019-09-19 06:00:00 11.5 3 Noroeste 5 Noroeste 0 -- -- 94
2019-09-19 05:00:00 12.6 0 Calma 4 Noroeste 0 -- -- 94
2019-09-19 04:00:00 13 0 Calma 4 Noroeste 0 -- -- 94
2019-09-19 03:00:00 13.4 0 Calma 4 Noroeste 0 -- -- 93
2019-09-19 02:00:00 14.1 0 Calma -- -- 0 -- -- 92
2019-09-19 01:00:00 14.4 0 Calma 2 Sudeste 0 -- -- 91
2019-09-19 00:00:00 14.9 2 Noroeste 4 Noroeste 0 -- -- 89
2019-09-18 23:00:00 15.9 0 Calma 8 Nordeste 0 -- -- 86
2019-09-18 22:00:00 18 4 Nordeste 9 Nordeste 0 -- -- 80
2019-09-18 21:00:00 19.2 0 Calma 5 Sur 0 -- -- 76
2019-09-18 20:00:00 22 2 Norte 17 Oeste 0 -- -- 63
2019-09-18 19:00:00 23.9 12 Noroeste 21 Noroeste 0 -- -- 58
2019-09-18 18:00:00 25.7 13 Noroeste 27 Noroeste 0 -- -- 55
2019-09-18 17:00:00 27.1 13 Noroeste 21 Noroeste 0 -- -- 49
2019-09-18 16:00:00 27.1 9 Noroeste 16 Oeste 0 -- -- 48
2019-09-18 15:00:00 27 7 Sudoeste 17 Oeste 0 -- -- 48
2019-09-18 14:00:00 25.5 7 Sudoeste 15 Sudoeste 0 -- -- 52
2019-09-18 13:00:00 23.8 5 Noroeste 13 Oeste 0 -- -- 55
2019-09-18 12:00:00 22.4 3 Nordeste 23 Este 0 -- -- 60
2019-09-18 11:00:00 20.6 13 Este 27 Este 0 -- -- 66
2019-09-18 10:00:00 16.7 5 Norte 12 Nordeste 0 -- -- 78
2019-09-18 09:00:00 15.2 8 Norte 15 Nordeste 0 -- -- 81
2019-09-18 08:00:00 15 6 Norte 13 Norte 0 -- -- 83
2019-09-18 07:00:00 15.5 5 Nordeste 13 Nordeste 0 -- -- 82
2019-09-18 06:00:00 15.6 4 Noroeste 13 Sudeste 0 -- -- 83
2019-09-18 05:00:00 16.6 6 Este 20 Nordeste 0 -- -- 79
2019-09-18 04:00:00 15.7 6 Nordeste 17 Este 0 -- -- 83
2019-09-18 03:00:00 15.4 8 Norte 13 Noroeste 0 -- -- 85
2019-09-18 02:00:00 15.9 4 Nordeste 12 Nordeste 0 -- -- 82
2019-09-18 01:00:00 17.9 4 Nordeste 15 Este 0 -- -- 75
2019-09-18 00:00:00 18.8 3 Este 26 Este 0 -- -- 71
2019-09-17 23:00:00 19 10 Este 35 Este 0 -- -- 74
2019-09-17 22:00:00 20.2 20 Este 33 Este 0 -- -- 72
2019-09-17 21:00:00 21.6 10 Este 21 Este 0 -- -- 72